sensor_id;sensor_type;location;lat;lon;timestamp;P1;durP1;ratioP1;P2;durP2;ratioP2
40527;SDS011;26230;51.268;6.534;2024-02-15T00:00:01;14.4;;;10.1;;
40527;SDS011;26230;51.268;6.534;2024-02-15T00:10:03;13.3;;;7.8;;
40527;SDS011;26230;51.268;6.534;2024-02-15T00:20:00;13.3;;;7.8;;
40527;SDS011;26230;51.268;6.534;2024-02-15T00:30:01;12.9;;;8.1;;
40527;SDS011;26230;51.268;6.534;2024-02-15T00:40:00;15.3;;;9.0;;
40527;SDS011;26230;51.268;6.534;2024-02-15T00:50:01;15.3;;;9.0;;
40527;SDS011;26230;51.268;6.534;2024-02-15T01:00:02;14.7;;;8.6;;
40527;SDS011;26230;51.268;6.534;2024-02-15T01:10:03;13.2;;;6.2;;
40527;SDS011;26230;51.268;6.534;2024-02-15T01:20:00;13.2;;;6.2;;
40527;SDS011;26230;51.268;6.534;2024-02-15T01:30:00;9.6;;;3.8;;
40527;SDS011;26230;51.268;6.534;2024-02-15T01:40:00;10.2;;;3.9;;
40527;SDS011;26230;51.268;6.534;2024-02-15T01:50:00;10.2;;;3.9;;
40527;SDS011;26230;51.268;6.534;2024-02-15T02:00:02;12.6;;;4.9;;
40527;SDS011;26230;51.268;6.534;2024-02-15T02:10:01;10.5;;;4.9;;
40527;SDS011;26230;51.268;6.534;2024-02-15T02:20:01;10.5;;;4.9;;
40527;SDS011;26230;51.268;6.534;2024-02-15T02:30:03;12.2;;;3.4;;
40527;SDS011;26230;51.268;6.534;2024-02-15T02:40:00;8.8;;;3.7;;
40527;SDS011;26230;51.268;6.534;2024-02-15T02:50:00;8.8;;;3.7;;
40527;SDS011;26230;51.268;6.534;2024-02-15T03:00:04;9.7;;;3.9;;
40527;SDS011;26230;51.268;6.534;2024-02-15T03:10:01;13.0;;;5.7;;
40527;SDS011;26230;51.268;6.534;2024-02-15T03:20:00;13.0;;;5.7;;
40527;SDS011;26230;51.268;6.534;2024-02-15T03:30:00;13.2;;;5.1;;
40527;SDS011;26230;51.268;6.534;2024-02-15T03:40:00;12.7;;;5.5;;
40527;SDS011;26230;51.268;6.534;2024-02-15T03:50:00;12.7;;;5.5;;
40527;SDS011;26230;51.268;6.534;2024-02-15T04:00:00;9.5;;;5.2;;
40527;SDS011;26230;51.268;6.534;2024-02-15T04:10:03;10.7;;;4.4;;
40527;SDS011;26230;51.268;6.534;2024-02-15T04:20:00;10.7;;;4.4;;
40527;SDS011;26230;51.268;6.534;2024-02-15T04:30:03;12.9;;;8.8;;
40527;SDS011;26230;51.268;6.534;2024-02-15T04:40:10;9.1;;;5.7;;
40527;SDS011;26230;51.268;6.534;2024-02-15T04:50:00;9.1;;;5.7;;
40527;SDS011;26230;51.268;6.534;2024-02-15T05:00:00;12.5;;;8.7;;
40527;SDS011;26230;51.268;6.534;2024-02-15T05:10:06;13.3;;;7.1;;
40527;SDS011;26230;51.268;6.534;2024-02-15T05:20:00;13.3;;;7.1;;
40527;SDS011;26230;51.268;6.534;2024-02-15T05:30:00;10.0;;;7.1;;
40527;SDS011;26230;51.268;6.534;2024-02-15T05:40:00;11.4;;;9.5;;
40527;SDS011;26230;51.268;6.534;2024-02-15T05:50:05;11.4;;;9.5;;
40527;SDS011;26230;51.268;6.534;2024-02-15T06:00:11;11.4;;;9.5;;
40527;SDS011;26230;51.268;6.534;2024-02-15T06:10:04;12.2;;;11.1;;
40527;SDS011;26230;51.268;6.534;2024-02-15T06:20:00;12.2;;;11.1;;
40527;SDS011;26230;51.268;6.534;2024-02-15T06:30:11;13.3;;;12.1;;
40527;SDS011;26230;51.268;6.534;2024-02-15T06:40:02;12.7;;;10.4;;
40527;SDS011;26230;51.268;6.534;2024-02-15T06:50:00;12.7;;;10.4;;
40527;SDS011;26230;51.268;6.534;2024-02-15T07:00:01;11.8;;;10.6;;
40527;SDS011;26230;51.268;6.534;2024-02-15T07:10:02;12.3;;;9.5;;
40527;SDS011;26230;51.268;6.534;2024-02-15T07:20:00;12.3;;;9.5;;
40527;SDS011;26230;51.268;6.534;2024-02-15T07:30:00;9.7;;;8.7;;
40527;SDS011;26230;51.268;6.534;2024-02-15T07:40:00;9.6;;;8.3;;
40527;SDS011;26230;51.268;6.534;2024-02-15T07:50:03;9.6;;;8.3;;
40527;SDS011;26230;51.268;6.534;2024-02-15T08:10:03;14.7;;;9.0;;
40527;SDS011;26230;51.268;6.534;2024-02-15T08:20:00;14.7;;;9.0;;
40527;SDS011;26230;51.268;6.534;2024-02-15T08:30:03;11.0;;;8.9;;
40527;SDS011;26230;51.268;6.534;2024-02-15T08:40:01;11.1;;;8.8;;
40527;SDS011;26230;51.268;6.534;2024-02-15T08:50:01;11.1;;;8.8;;
40527;SDS011;26230;51.268;6.534;2024-02-15T09:10:00;10.1;;;8.5;;
40527;SDS011;26230;51.268;6.534;2024-02-15T09:20:00;10.1;;;8.5;;
40527;SDS011;26230;51.268;6.534;2024-02-15T09:30:00;10.9;;;9.3;;
40527;SDS011;26230;51.268;6.534;2024-02-15T09:40:08;10.6;;;9.5;;
40527;SDS011;26230;51.268;6.534;2024-02-15T09:50:01;10.6;;;9.5;;
40527;SDS011;26230;51.268;6.534;2024-02-15T10:00:03;16.8;;;15.2;;
40527;SDS011;26230;51.268;6.534;2024-02-15T10:10:20;7.8;;;2.6;;
40527;SDS011;26230;51.268;6.534;2024-02-15T10:20:05;7.8;;;2.6;;
40527;SDS011;26230;51.268;6.534;2024-02-15T10:30:17;7.6;;;3.3;;
40527;SDS011;26230;51.268;6.534;2024-02-15T10:40:08;14.7;;;13.4;;
40527;SDS011;26230;51.268;6.534;2024-02-15T10:50:00;14.7;;;13.4;;
40527;SDS011;26230;51.268;6.534;2024-02-15T11:00:12;9.4;;;2.7;;
40527;SDS011;26230;51.268;6.534;2024-02-15T11:10:01;7.0;;;1.8;;
40527;SDS011;26230;51.268;6.534;2024-02-15T11:20:00;7.0;;;1.8;;
40527;SDS011;26230;51.268;6.534;2024-02-15T11:30:09;12.3;;;3.0;;
40527;SDS011;26230;51.268;6.534;2024-02-15T11:40:00;9.0;;;5.2;;
40527;SDS011;26230;51.268;6.534;2024-02-15T11:50:02;9.0;;;5.2;;
40527;SDS011;26230;51.268;6.534;2024-02-15T12:00:29;6.1;;;1.2;;
40527;SDS011;26230;51.268;6.534;2024-02-15T12:10:15;5.9;;;1.5;;
40527;SDS011;26230;51.268;6.534;2024-02-15T12:20:07;5.9;;;1.5;;
40527;SDS011;26230;51.268;6.534;2024-02-15T12:30:00;3.7;;;1.1;;
40527;SDS011;26230;51.268;6.534;2024-02-15T12:40:10;4.7;;;1.0;;
40527;SDS011;26230;51.268;6.534;2024-02-15T12:50:13;4.7;;;1.0;;
40527;SDS011;26230;51.268;6.534;2024-02-15T13:00:00;5.8;;;1.6;;
40527;SDS011;26230;51.268;6.534;2024-02-15T13:10:00;5.8;;;1.6;;
40527;SDS011;26230;51.268;6.534;2024-02-15T13:20:04;4.9;;;1.7;;
40527;SDS011;26230;51.268;6.534;2024-02-15T13:30:01;5.9;;;1.4;;
40527;SDS011;26230;51.268;6.534;2024-02-15T13:40:00;5.9;;;1.4;;
40527;SDS011;26230;51.268;6.534;2024-02-15T13:50:02;5.9;;;2.1;;
40527;SDS011;26230;51.268;6.534;2024-02-15T14:00:05;4.5;;;2.7;;
40527;SDS011;26230;51.268;6.534;2024-02-15T14:10:04;4.5;;;2.7;;
40527;SDS011;26230;51.268;6.534;2024-02-15T14:20:15;4.9;;;2.2;;
40527;SDS011;26230;51.268;6.534;2024-02-15T14:40:07;4.4;;;2.4;;
40527;SDS011;26230;51.268;6.534;2024-02-15T14:50:01;6.0;;;5.1;;
40527;SDS011;26230;51.268;6.534;2024-02-15T15:00:12;6.4;;;4.7;;
40527;SDS011;26230;51.268;6.534;2024-02-15T15:20:02;7.2;;;3.7;;
40527;SDS011;26230;51.268;6.534;2024-02-15T15:30:03;7.8;;;2.3;;
40527;SDS011;26230;51.268;6.534;2024-02-15T15:40:00;7.8;;;2.3;;
40527;SDS011;26230;51.268;6.534;2024-02-15T15:50:01;6.1;;;2.9;;
40527;SDS011;26230;51.268;6.534;2024-02-15T16:00:02;6.2;;;3.8;;
40527;SDS011;26230;51.268;6.534;2024-02-15T16:10:01;6.2;;;3.8;;
40527;SDS011;26230;51.268;6.534;2024-02-15T16:20:04;7.5;;;6.9;;
40527;SDS011;26230;51.268;6.534;2024-02-15T16:30:03;8.8;;;5.4;;
40527;SDS011;26230;51.268;6.534;2024-02-15T16:40:01;8.8;;;5.4;;
40527;SDS011;26230;51.268;6.534;2024-02-15T16:50:07;7.1;;;6.4;;
40527;SDS011;26230;51.268;6.534;2024-02-15T17:00:05;11.7;;;4.5;;
40527;SDS011;26230;51.268;6.534;2024-02-15T17:10:01;11.7;;;4.5;;
40527;SDS011;26230;51.268;6.534;2024-02-15T17:20:02;4.6;;;2.9;;
40527;SDS011;26230;51.268;6.534;2024-02-15T17:30:01;12.0;;;10.8;;
40527;SDS011;26230;51.268;6.534;2024-02-15T17:40:01;12.0;;;10.8;;
40527;SDS011;26230;51.268;6.534;2024-02-15T17:50:03;7.0;;;1.5;;
40527;SDS011;26230;51.268;6.534;2024-02-15T18:00:02;6.7;;;3.4;;
40527;SDS011;26230;51.268;6.534;2024-02-15T18:10:03;6.7;;;3.4;;
40527;SDS011;26230;51.268;6.534;2024-02-15T18:20:01;7.4;;;4.5;;
40527;SDS011;26230;51.268;6.534;2024-02-15T18:30:04;6.8;;;4.2;;
40527;SDS011;26230;51.268;6.534;2024-02-15T18:50:02;12.9;;;11.6;;
40527;SDS011;26230;51.268;6.534;2024-02-15T19:10:01;6.9;;;6.2;;
40527;SDS011;26230;51.268;6.534;2024-02-15T19:20:03;11.3;;;10.2;;
40527;SDS011;26230;51.268;6.534;2024-02-15T19:30:01;7.5;;;6.7;;
40527;SDS011;26230;51.268;6.534;2024-02-15T19:40:11;7.5;;;6.7;;
40527;SDS011;26230;51.268;6.534;2024-02-15T19:50:03;5.8;;;3.3;;
40527;SDS011;26230;51.268;6.534;2024-02-15T20:00:01;7.9;;;2.7;;
40527;SDS011;26230;51.268;6.534;2024-02-15T20:10:07;7.9;;;2.7;;
40527;SDS011;26230;51.268;6.534;2024-02-15T20:20:01;13.1;;;10.6;;
40527;SDS011;26230;51.268;6.534;2024-02-15T20:30:03;7.0;;;5.4;;
40527;SDS011;26230;51.268;6.534;2024-02-15T20:40:00;7.0;;;5.4;;
40527;SDS011;26230;51.268;6.534;2024-02-15T20:50:03;14.5;;;13.3;;
40527;SDS011;26230;51.268;6.534;2024-02-15T21:00:02;18.2;;;16.5;;
40527;SDS011;26230;51.268;6.534;2024-02-15T21:10:04;18.2;;;16.5;;
40527;SDS011;26230;51.268;6.534;2024-02-15T21:20:01;9.3;;;7.7;;
40527;SDS011;26230;51.268;6.534;2024-02-15T21:30:05;8.5;;;4.2;;
40527;SDS011;26230;51.268;6.534;2024-02-15T21:40:04;8.5;;;4.2;;
40527;SDS011;26230;51.268;6.534;2024-02-15T21:50:06;5.8;;;3.6;;
40527;SDS011;26230;51.268;6.534;2024-02-15T22:00:01;9.7;;;7.8;;
40527;SDS011;26230;51.268;6.534;2024-02-15T22:10:02;9.7;;;7.8;;
40527;SDS011;26230;51.268;6.534;2024-02-15T22:20:03;9.3;;;5.1;;
40527;SDS011;26230;51.268;6.534;2024-02-15T22:30:02;9.2;;;7.1;;
40527;SDS011;26230;51.268;6.534;2024-02-15T22:40:03;9.2;;;7.1;;
40527;SDS011;26230;51.268;6.534;2024-02-15T22:50:03;9.5;;;8.5;;
40527;SDS011;26230;51.268;6.534;2024-02-15T23:00:02;13.2;;;10.8;;
40527;SDS011;26230;51.268;6.534;2024-02-15T23:10:02;13.2;;;10.8;;
40527;SDS011;26230;51.268;6.534;2024-02-15T23:20:04;12.2;;;10.9;;
40527;SDS011;26230;51.268;6.534;2024-02-15T23:30:02;6.4;;;4.8;;
40527;SDS011;26230;51.268;6.534;2024-02-15T23:50:01;7.1;;;5.6;;
